Time;durP1;ratioP1;P1;durP2;ratioP2;P2;SDS_P1;SDS_P2;PMS_P1;PMS_P2;Temp;Humidity;BMP_temperature;BMP_pressure;BME280_temperature;BME280_humidity;BME280_pressure;Samples;Min_cycle;Max_cycle;Signal;HPM_P1;HPM_P2
2022/07/25 00:00:11;;;;;;;7.68;6.97;;;;;;;24.98;56.28;100967.56;6274610;22;20412;-70
2022/07/25 00:02:36;;;;;;;7.40;6.70;;;;;;;24.95;56.31;100969.06;6276180;22;20339;-70
2022/07/25 00:05:03;;;;;;;8.88;7.95;;;;;;;24.97;56.29;100965.91;6276807;22;20003;-70
2022/07/25 00:07:28;;;;;;;8.15;7.35;;;;;;;24.92;56.01;100964.09;6275015;22;20022;-70
2022/07/25 00:09:59;;;;;;;8.43;7.60;;;;;;;24.89;56.09;100956.28;6275166;22;20027;-70
2022/07/25 00:12:25;;;;;;;8.80;7.60;;;;;;;24.89;55.61;100952.63;6274346;22;20500;-70
2022/07/25 00:14:51;;;;;;;10.27;7.55;;;;;;;24.86;55.53;100953.31;6275463;22;20027;-70
2022/07/25 00:17:16;;;;;;;8.32;7.45;;;;;;;24.87;55.71;100952.13;6273799;22;20066;-71
2022/07/25 00:19:41;;;;;;;8.55;7.75;;;;;;;24.83;55.28;100948.31;6275096;22;20000;-71
2022/07/25 00:22:06;;;;;;;8.00;7.28;;;;;;;24.80;55.84;100944.19;6275421;22;20011;-70
2022/07/25 00:24:32;;;;;;;11.82;7.25;;;;;;;24.78;56.24;100940.03;6275976;22;20442;-70
2022/07/25 00:26:57;;;;;;;8.30;7.60;;;;;;;24.76;55.79;100937.53;6275709;22;20012;-69
2022/07/25 00:29:22;;;;;;;9.00;8.13;;;;;;;24.77;55.36;100938.38;6274489;22;20031;-69
2022/07/25 00:31:48;;;;;;;12.45;8.13;;;;;;;24.72;55.33;100930.91;6276443;22;20366;-70
2022/07/25 00:34:13;;;;;;;8.02;7.32;;;;;;;24.76;55.67;100937.53;6274983;22;20007;-71
2022/07/25 00:36:38;;;;;;;8.45;7.47;;;;;;;24.76;55.09;100925.31;6275397;22;20000;-70
2022/07/25 00:39:04;;;;;;;7.95;7.25;;;;;;;24.76;55.09;100926.19;6275735;22;20000;-70
2022/07/25 00:41:29;;;;;;;9.27;8.02;;;;;;;24.73;54.78;100922.03;6274970;22;20011;-71
2022/07/25 00:43:55;;;;;;;10.32;7.68;;;;;;;24.73;55.42;100921.19;6276053;22;20004;-71
2022/07/25 00:46:20;;;;;;;8.88;7.20;;;;;;;24.76;55.49;100917.66;6276838;22;20383;-70
2022/07/25 00:48:46;;;;;;;8.38;7.45;;;;;;;24.74;54.87;100909.47;6275712;22;20083;-71
2022/07/25 00:51:11;;;;;;;7.95;7.25;;;;;;;24.72;54.88;100909.00;6276286;22;20008;-70
2022/07/25 00:53:38;;;;;;;8.32;7.07;;;;;;;24.68;55.07;100905.22;6276092;22;20103;-70
2022/07/25 00:56:04;;;;;;;8.68;7.82;;;;;;;24.65;55.09;100900.22;6275812;22;20004;-71
2022/07/25 00:58:30;;;;;;;8.02;7.22;;;;;;;24.66;55.41;100899.03;6275668;22;20027;-70
2022/07/25 01:00:56;;;;;;;7.82;6.93;;;;;;;24.67;54.99;100906.38;6275910;22;20007;-69
2022/07/25 01:03:22;;;;;;;7.28;6.68;;;;;;;24.65;55.04;100897.38;6273793;22;20023;-70
2022/07/25 01:05:49;;;;;;;8.75;7.47;;;;;;;24.67;54.90;100894.19;6274879;22;20087;-70
2022/07/25 01:08:16;;;;;;;8.10;7.13;;;;;;;24.63;54.58;100893.22;6274907;22;20003;-70
2022/07/25 01:10:42;;;;;;;8.38;7.50;;;;;;;24.54;55.24;100884.78;6274279;22;20000;-71
2022/07/25 01:13:07;;;;;;;8.40;7.60;;;;;;;24.59;54.20;100892.25;6276284;22;20012;-70
2022/07/25 01:15:33;;;;;;;8.05;7.28;;;;;;;24.59;54.52;100880.91;6275742;22;20054;-71
2022/07/25 01:17:58;;;;;;;7.63;6.82;;;;;;;24.60;54.41;100874.91;6274890;22;20003;-70
2022/07/25 01:20:25;;;;;;;9.35;7.35;;;;;;;24.54;54.56;100867.78;6276019;22;20053;-71
2022/07/25 01:22:52;;;;;;;8.00;7.20;;;;;;;24.58;54.64;100868.72;6276556;22;20061;-71
2022/07/25 01:25:18;;;;;;;8.23;7.43;;;;;;;24.58;54.26;100868.72;6275963;22;20033;-71
2022/07/25 01:27:45;;;;;;;7.97;7.20;;;;;;;24.54;54.30;100870.59;6275790;22;20003;-71
2022/07/25 01:30:13;;;;;;;8.45;7.65;;;;;;;24.46;54.30;100863.81;6274436;22;20008;-70
2022/07/25 01:32:39;;;;;;;8.35;7.18;;;;;;;24.47;53.53;100865.47;6275880;22;20020;-71
2022/07/25 01:35:06;;;;;;;7.60;6.88;;;;;;;24.48;53.45;100855.81;6276172;22;20011;-71
2022/07/25 01:37:31;;;;;;;7.18;6.50;;;;;;;24.49;53.91;100863.13;6274499;22;20031;-71
2022/07/25 01:39:56;;;;;;;7.55;6.75;;;;;;;24.55;53.88;100858.06;6276316;22;20411;-71
2022/07/25 01:42:22;;;;;;;7.07;6.47;;;;;;;24.52;53.95;100855.09;6276496;22;20004;-71
2022/07/25 01:44:47;;;;;;;7.65;6.95;;;;;;;24.48;54.16;100852.97;6273903;22;20327;-71
2022/07/25 01:47:12;;;;;;;7.97;7.18;;;;;;;24.48;52.37;100849.28;6275638;22;20428;-71
2022/07/25 01:49:38;;;;;;;11.88;6.93;;;;;;;24.43;53.12;100843.81;6276607;22;20003;-71
2022/07/25 01:52:03;;;;;;;7.90;6.65;;;;;;;24.45;52.08;100833.81;6276146;22;20012;-71
2022/07/25 01:54:32;;;;;;;7.80;7.03;;;;;;;24.45;52.40;100835.81;6276355;22;20004;-71
2022/07/25 01:56:57;;;;;;;8.52;7.30;;;;;;;24.43;52.66;100832.47;6277069;22;20327;-70
2022/07/25 01:59:22;;;;;;;9.48;6.82;;;;;;;24.43;52.93;100826.81;6275418;22;20008;-70
2022/07/25 02:01:51;;;;;;;7.35;6.63;;;;;;;24.41;52.15;100827.16;6276829;22;20012;-70
2022/07/25 02:04:16;;;;;;;7.10;6.40;;;;;;;24.45;52.50;100824.47;6276721;22;20086;-70
2022/07/25 02:06:41;;;;;;;10.18;6.50;;;;;;;24.44;52.70;100825.63;6276872;22;20329;-70
2022/07/25 02:09:07;;;;;;;8.75;6.95;;;;;;;24.33;51.49;100813.84;6276626;22;20054;-71
2022/07/25 02:11:33;;;;;;;7.22;6.55;;;;;;;24.39;52.67;100814.50;6276728;22;20011;-71
2022/07/25 02:14:01;;;;;;;10.10;7.25;;;;;;;24.38;53.00;100807.13;6276771;22;20004;-71
2022/07/25 02:16:26;;;;;;;6.88;6.18;;;;;;;24.38;52.21;100813.66;6279590;22;20002;-71
2022/07/25 02:18:52;;;;;;;7.68;6.82;;;;;;;24.38;52.20;100810.84;6276484;22;20395;-72
2022/07/25 02:21:20;;;;;;;8.27;6.47;;;;;;;24.35;52.40;100808.66;6275949;22;20007;-71
2022/07/25 02:23:45;;;;;;;7.90;7.20;;;;;;;24.33;52.67;100813.84;6277162;22;20054;-71
2022/07/25 02:26:11;;;;;;;7.10;6.32;;;;;;;24.34;51.88;100809.00;6276297;22;20501;-71
2022/07/25 02:28:37;;;;;;;6.93;6.03;;;;;;;24.38;52.05;100813.66;6275853;22;20003;-71
2022/07/25 02:31:02;;;;;;;7.63;6.88;;;;;;;24.37;51.89;100811.16;6277008;22;19999;-71
2022/07/25 02:33:28;;;;;;;7.18;6.47;;;;;;;24.33;52.47;100799.69;6276455;22;20467;-71
2022/07/25 02:35:53;;;;;;;8.80;6.25;;;;;;;24.35;53.01;100805.00;6275076;22;19992;-71
2022/07/25 02:38:19;;;;;;;8.50;6.05;;;;;;;24.37;52.98;100796.97;6276978;22;20000;-71
2022/07/25 02:40:49;;;;;;;6.93;6.32;;;;;;;24.35;53.24;100796.47;6275704;22;20010;-72
2022/07/25 02:43:14;;;;;;;7.13;6.13;;;;;;;24.34;53.35;100789.16;6277412;22;20012;-72
2022/07/25 02:45:40;;;;;;;7.05;6.35;;;;;;;24.33;52.05;100782.66;6276616;22;20015;-71
2022/07/25 02:48:05;;;;;;;6.80;6.20;;;;;;;24.31;52.81;100781.34;6276408;22;20071;-71
2022/07/25 02:50:31;;;;;;;7.07;6.03;;;;;;;24.23;50.77;100783.91;6276781;22;20086;-71
2022/07/25 02:52:56;;;;;;;7.13;6.45;;;;;;;24.24;51.81;100782.72;6276337;22;20007;-72
2022/07/25 02:55:21;;;;;;;8.68;6.63;;;;;;;24.24;51.56;100779.06;6275932;22;20002;-71
2022/07/25 02:57:47;;;;;;;6.82;5.97;;;;;;;24.24;51.15;100777.03;6277360;22;20419;-71
2022/07/25 03:00:14;;;;;;;7.75;6.63;;;;;;;24.21;51.82;100780.59;6275641;22;20006;-72
2022/07/25 03:02:39;;;;;;;9.32;5.97;;;;;;;24.21;51.02;100780.59;6276040;22;20007;-71
2022/07/25 03:05:07;;;;;;;6.88;6.28;;;;;;;24.17;51.83;100788.13;6275227;22;20065;-71
2022/07/25 03:07:32;;;;;;;6.93;6.22;;;;;;;24.18;51.18;100778.44;6275909;22;20027;-71
2022/07/25 03:09:57;;;;;;;7.32;6.35;;;;;;;24.21;51.43;100777.75;6274597;22;20407;-71
2022/07/25 03:12:23;;;;;;;7.85;6.35;;;;;;;24.19;50.74;100762.25;6276290;22;20007;-71
2022/07/25 03:14:49;;;;;;;6.90;6.18;;;;;;;24.18;50.75;100758.59;6275269;22;20415;-72
2022/07/25 03:17:14;;;;;;;7.22;6.53;;;;;;;24.10;49.76;100761.50;6275656;22;20323;-71
2022/07/25 03:19:39;;;;;;;6.72;6.13;;;;;;;24.09;50.10;100755.03;6276625;22;20000;-71
2022/07/25 03:22:05;;;;;;;7.18;6.47;;;;;;;24.10;50.82;100751.00;6276053;22;20061;-71
2022/07/25 03:24:30;;;;;;;7.95;6.65;;;;;;;24.07;49.80;100754.53;6275365;22;20519;-71
2022/07/25 03:26:55;;;;;;;7.95;6.60;;;;;;;23.99;49.53;100753.41;6275716;22;20335;-71
2022/07/25 03:29:21;;;;;;;6.63;5.95;;;;;;;24.06;49.74;100754.88;6276391;22;20480;-71
2022/07/25 03:31:46;;;;;;;8.88;6.40;;;;;;;24.03;49.82;100745.06;6275447;22;20003;-71
2022/07/25 03:34:11;;;;;;;7.25;6.55;;;;;;;24.08;50.09;100758.19;6275963;22;20497;-71
2022/07/25 03:36:36;;;;;;;8.38;6.32;;;;;;;24.02;50.26;100740.56;6276677;22;20061;-71
2022/07/25 03:39:02;;;;;;;6.93;6.22;;;;;;;23.96;49.68;100751.25;6275297;22;20477;-71
2022/07/25 03:41:27;;;;;;;7.90;6.50;;;;;;;24.03;49.84;100753.56;6276198;22;20087;-71
2022/07/25 03:43:52;;;;;;;6.85;6.20;;;;;;;23.97;49.43;100752.09;6275982;22;20012;-71
2022/07/25 03:46:24;;;;;;;7.60;6.18;;;;;;;24.01;49.81;100758.72;6275882;22;20063;-71
2022/07/25 03:48:49;;;;;;;9.02;6.68;;;;;;;23.98;49.73;100753.78;6275212;22;20000;-71
2022/07/25 03:51:14;;;;;;;6.72;6.03;;;;;;;24.03;49.81;100750.72;6275488;22;20560;-71
2022/07/25 03:56:23;;;;;;;8.68;6.85;;;;;;;24.02;50.05;100754.75;6275779;22;20015;-71
2022/07/25 03:58:49;;;;;;;8.15;7.13;;;;;;;24.02;49.68;100749.06;6274826;22;20320;-72
2022/07/25 04:01:14;;;;;;;7.40;6.15;;;;;;;24.05;49.69;100748.38;6276203;22;20003;-72
2022/07/25 04:03:39;;;;;;;7.32;6.50;;;;;;;24.00;49.96;100738.06;6274667;22;20406;-71
2022/07/25 04:06:05;;;;;;;7.38;6.15;;;;;;;23.98;49.57;100742.44;6274566;22;20349;-72
2022/07/25 04:08:30;;;;;;;10.02;7.05;;;;;;;23.94;49.59;100732.97;6276118;22;20151;-69
2022/07/25 04:10:55;;;;;;;10.52;6.72;;;;;;;23.91;49.89;100734.47;6275176;22;20082;-70
2022/07/25 04:13:21;;;;;;;9.05;6.20;;;;;;;23.94;49.61;100738.63;6275764;22;20003;-69
2022/07/25 04:15:46;;;;;;;7.57;6.80;;;;;;;23.84;49.59;100739.03;6276097;22;20428;-71
2022/07/25 04:18:11;;;;;;;10.93;6.78;;;;;;;23.82;49.99;100728.06;6276242;22;20004;-71
2022/07/25 04:20:36;;;;;;;9.35;6.80;;;;;;;23.79;50.16;100734.41;6275545;22;20041;-71
2022/07/25 04:23:02;;;;;;;7.60;6.85;;;;;;;23.86;50.22;100734.69;6275782;22;20004;-71
2022/07/25 04:25:27;;;;;;;8.55;7.05;;;;;;;23.87;49.99;100733.50;6275532;22;20012;-71
2022/07/25 04:27:52;;;;;;;7.80;6.65;;;;;;;23.91;49.90;100733.66;6275948;22;20004;-71
2022/07/25 04:30:18;;;;;;;8.60;6.97;;;;;;;23.83;49.95;100728.88;6275414;22;20360;-71
2022/07/25 04:32:43;;;;;;;10.13;6.25;;;;;;;23.89;50.27;100724.66;6275793;22;20004;-69
2022/07/25 04:35:08;;;;;;;7.50;6.47;;;;;;;23.91;50.21;100742.97;6274334;22;20443;-70
2022/07/25 04:37:35;;;;;;;7.97;6.80;;;;;;;23.90;50.56;100738.50;6275974;22;19999;-71
2022/07/25 04:40:00;;;;;;;8.48;6.72;;;;;;;23.90;50.32;100740.50;6275938;22;20010;-71
2022/07/25 04:42:26;;;;;;;9.60;7.10;;;;;;;23.79;49.97;100750.59;6275250;22;20003;-70
2022/07/25 04:44:52;;;;;;;7.45;6.75;;;;;;;23.81;50.02;100743.38;6275561;22;20086;-70
2022/07/25 04:47:17;;;;;;;12.23;7.00;;;;;;;23.81;50.24;100736.88;6275469;22;20046;-71
2022/07/25 04:49:42;;;;;;;9.05;6.40;;;;;;;23.77;50.25;100731.91;6274991;22;20395;-71
2022/07/25 04:52:08;;;;;;;8.75;7.00;;;;;;;23.81;50.17;100719.88;6275162;22;20038;-71
2022/07/25 04:54:33;;;;;;;8.10;6.75;;;;;;;23.72;50.77;100717.94;6274787;22;20037;-71
2022/07/25 04:56:59;;;;;;;8.27;6.60;;;;;;;23.79;50.75;100727.91;6275794;22;20030;-71
2022/07/25 04:59:24;;;;;;;8.40;6.57;;;;;;;23.81;50.65;100722.72;6274512;22;20000;-71
2022/07/25 05:01:49;;;;;;;8.18;6.53;;;;;;;23.70;50.39;100740.16;6273224;22;20011;-70
2022/07/25 05:04:15;;;;;;;8.27;6.25;;;;;;;23.75;49.96;100731.44;6276145;22;20011;-71
2022/07/25 05:06:40;;;;;;;12.10;7.18;;;;;;;23.73;50.64;100736.59;6274421;22;20010;-71
2022/07/25 05:09:05;;;;;;;8.77;7.07;;;;;;;23.70;50.56;100731.66;6275228;22;20004;-71
2022/07/25 05:11:30;;;;;;;7.68;6.78;;;;;;;23.73;50.75;100728.09;6276118;22;20004;-70
2022/07/25 05:13:56;;;;;;;7.80;7.00;;;;;;;23.69;50.32;100723.47;6274301;22;20003;-71
2022/07/25 05:16:21;;;;;;;9.73;6.70;;;;;;;23.73;50.88;100730.94;6274518;22;20008;-71
2022/07/25 05:18:46;;;;;;;9.57;7.40;;;;;;;23.65;51.18;100739.47;6275341;22;20075;-70
2022/07/25 05:21:12;;;;;;;9.60;7.10;;;;;;;23.65;50.72;100734.63;6275495;22;20377;-70
2022/07/25 05:23:57;;;;;;;11.40;7.70;;;;;;;23.67;50.95;100732.34;6275386;22;20094;-71
2022/07/25 05:26:22;;;;;;;10.55;7.25;;;;;;;23.64;51.10;100727.31;6253314;22;20555;-71
2022/07/25 05:28:48;;;;;;;7.57;6.80;;;;;;;23.67;51.59;100729.50;6275070;22;20000;-70
2022/07/25 05:31:13;;;;;;;7.60;6.63;;;;;;;23.71;51.61;100736.13;6275776;22;20007;-71
2022/07/25 05:33:38;;;;;;;10.27;6.93;;;;;;;23.72;51.59;100732.13;6275821;22;20006;-70
2022/07/25 05:36:04;;;;;;;7.45;6.43;;;;;;;23.77;51.40;100737.56;6275436;22;20030;-71
2022/07/25 05:38:30;;;;;;;9.48;7.07;;;;;;;23.70;51.71;100743.00;6275852;22;19999;-71
2022/07/25 05:40:55;;;;;;;8.48;7.60;;;;;;;23.66;51.82;100750.53;6273642;22;20026;-71
2022/07/25 05:43:21;;;;;;;7.95;6.60;;;;;;;23.79;51.40;100744.91;6275015;22;20004;-69
2022/07/25 05:45:46;;;;;;;13.30;7.80;;;;;;;23.74;52.03;100737.47;6273481;22;20007;-68
2022/07/25 05:48:13;;;;;;;9.52;7.05;;;;;;;23.77;51.73;100737.56;6276263;22;20439;-69
2022/07/25 05:50:39;;;;;;;8.00;7.18;;;;;;;23.69;51.85;100734.81;6275493;22;20023;-67
2022/07/25 05:53:04;;;;;;;8.32;7.20;;;;;;;23.76;52.09;100735.91;6275615;22;19999;-67
2022/07/25 05:55:30;;;;;;;10.95;6.95;;;;;;;23.81;51.98;100740.56;6273454;22;20110;-67
2022/07/25 05:57:55;;;;;;;9.60;7.40;;;;;;;23.83;52.14;100740.22;6274382;22;20007;-70
2022/07/25 06:00:24;;;;;;;7.53;6.53;;;;;;;23.85;52.16;100757.69;6274282;22;20020;-70
2022/07/25 06:02:49;;;;;;;8.60;7.15;;;;;;;23.84;51.91;100753.22;6274259;22;20038;-69
2022/07/25 06:05:14;;;;;;;7.78;6.97;;;;;;;23.82;51.90;100761.25;6274002;22;20007;-69
2022/07/25 06:07:40;;;;;;;9.57;7.13;;;;;;;23.82;52.15;100764.91;6276035;22;20324;-69
2022/07/25 06:10:05;;;;;;;10.60;7.63;;;;;;;23.72;52.13;100762.47;6274071;22;20026;-67
2022/07/25 06:12:32;;;;;;;9.85;7.22;;;;;;;23.77;52.32;100760.25;6276558;22;20004;-67
2022/07/25 06:14:58;;;;;;;8.93;7.40;;;;;;;23.75;52.02;100768.28;6275643;22;20019;-68
2022/07/25 06:17:23;;;;;;;7.93;7.13;;;;;;;23.80;51.46;100747.41;6276553;22;20011;-68
2022/07/25 06:19:48;;;;;;;7.57;6.55;;;;;;;23.80;51.93;100757.91;6274376;22;20008;-69
2022/07/25 06:22:14;;;;;;;8.85;6.97;;;;;;;23.66;52.01;100761.84;6276356;22;20027;-70
2022/07/25 06:24:39;;;;;;;7.25;6.45;;;;;;;23.69;51.92;100761.13;6275383;22;20007;-70
2022/07/25 06:27:06;;;;;;;10.93;7.40;;;;;;;23.64;51.99;100760.50;6275834;22;20007;-70
2022/07/25 06:29:31;;;;;;;7.15;6.43;;;;;;;23.66;52.17;100767.53;6271568;22;20452;-69
2022/07/25 06:39:23;;;;;;;;;;;;;;;;;;;;;
2022/07/25 06:42:26;;;;;;;7.57;5.47;;;;;;;23.77;52.14;100771.59;6258909;22;20082;-76
2022/07/25 06:56:57;;;;;;;;;;;;;;;;;;;;;
2022/07/25 08:03:53;;;;;;;6.95;1.83;;;;;;;24.23;54.08;100774.56;6036448;23;20061;-75
2022/07/25 08:07:03;;;;;;;6.25;2.55;;;;;;;24.34;53.69;100786.31;6001600;23;20023;-78
2022/07/25 08:13:40;;;;;;;;;;;;;;;;;;;;;
2022/07/25 09:05:51;;;;;;;4.40;1.58;;;;;;;25.10;55.17;100800.06;6036738;23;20086;-77
2022/07/25 09:12:49;;;;;;;4.50;1.60;;;;;;;25.29;54.10;100798.69;6036184;23;20011;-78
2022/07/25 09:26:56;;;;;;;4.40;1.60;;;;;;;25.37;54.05;100817.63;6152127;23;20017;-81
2022/07/25 09:30:13;;;;;;;;;;;;;;;;;;;;;
2022/07/25 09:33:55;;;;;;;5.97;1.67;;;;;;;25.40;53.29;100831.94;6150531;23;20438;-79
2022/07/25 09:37:11;;;;;;;7.80;2.05;;;;;;;25.36;52.73;100822.47;6196762;23;20036;-76
2022/07/25 09:40:54;;;;;;;4.32;2.00;;;;;;;25.36;52.44;100828.16;6196263;23;20012;-78
2022/07/25 09:54:02;;;;;;;9.32;2.50;;;;;;;25.68;51.77;100832.06;5924023;24;20104;-80
2022/07/25 10:01:19;;;;;;;5.40;2.00;;;;;;;25.97;51.79;100846.41;6034036;23;20022;-78
2022/07/25 10:04:33;;;;;;;8.45;2.15;;;;;;;25.99;51.29;100841.19;6036987;23;20444;-76
2022/07/25 10:11:22;;;;;;;6.68;1.92;;;;;;;25.95;50.26;100832.53;5897477;24;20058;-77
2022/07/25 10:18:21;;;;;;;6.47;2.10;;;;;;;26.13;50.17;100842.47;6137452;23;20027;-76
2022/07/25 10:25:44;;;;;;;;;;;;;;;;;;;;;
2022/07/25 10:32:39;;;;;;;8.40;2.40;;;;;;;26.03;49.79;100828.72;6117357;23;20337;-75
2022/07/25 10:35:46;;;;;;;6.93;2.05;;;;;;;25.99;49.16;100836.31;6122938;23;20473;-76
2022/07/25 10:39:13;;;;;;;;;;;;;;;;;;;;;
2022/07/25 10:46:22;;;;;;;4.57;1.85;;;;;;;26.13;48.34;100853.00;6119556;23;20016;-72
2022/07/25 10:52:55;;;;;;;3.10;1.90;;;;;;;26.08;48.12;100856.91;6122062;23;20062;-73
2022/07/25 10:59:53;;;;;;;;;;;;;;;;;;;;;
2022/07/25 11:17:11;;;;;;;6.55;2.47;;;;;;;26.07;48.03;100880.88;6141011;23;20008;-72
2022/07/25 11:20:24;;;;;;;6.72;2.92;;;;;;;25.91;47.34;100868.56;6038875;23;20014;-73
2022/07/25 11:33:56;;;;;;;7.82;2.90;;;;;;;25.77;47.88;100885.94;6227128;23;20458;-73
2022/07/25 11:48:08;;;;;;;6.72;3.25;;;;;;;25.77;49.12;100894.47;5977852;23;20524;-76
2022/07/25 11:51:33;;;;;;;;;;;;;;;;;;;;;
2022/07/25 12:01:49;;;;;;;6.28;2.97;;;;;;;25.77;48.33;100910.72;6149133;23;20024;-74
2022/07/25 12:08:31;;;;;;;6.07;3.17;;;;;;;25.74;48.51;100931.31;6014566;23;20051;-75
2022/07/25 12:15:48;;;;;;;8.13;4.50;;;;;;;25.69;48.28;100923.84;6084263;23;20357;-74
2022/07/25 12:29:43;;;;;;;8.43;3.03;;;;;;;25.64;46.74;100929.78;6118335;23;20024;-71
2022/07/25 12:36:55;;;;;;;;;;;;;;;;;;;;;
2022/07/25 12:43:03;;;;;;;6.60;2.95;;;;;;;25.32;47.02;100931.50;6092306;23;20040;-73
2022/07/25 12:53:12;;;;;;;7.20;3.22;;;;;;;25.26;46.83;100939.41;6213425;23;20031;-74
2022/07/25 13:04:08;;;;;;;;;;;;;;;;;;;;;
2022/07/25 13:14:08;;;;;;;;;;;;;;;;;;;;;
2022/07/25 13:17:30;;;;;;;8.77;2.50;;;;;;;25.53;46.81;100937.09;6164070;23;20083;-74
2022/07/25 13:23:59;;;;;;;;;;;;;;;25.70;46.69;100936.88;6244275;23;20023;-76
2022/07/25 13:27:24;;;;;;;6.28;2.53;;;;;;;25.78;46.04;100920.91;6120749;23;19944;-73
2022/07/25 13:49:16;;;;;;;;;;;;;;;;;;;;;
2022/07/25 13:56:48;;;;;;;;;;;;;;;;;;;;;
2022/07/25 14:10:56;;;;;;;;;;;;;;;;;;;;;
2022/07/25 14:45:13;;;;;;;;;;;;;;;;;;;;;
2022/07/25 14:47:49;;;;;;;7.03;1.77;;;;;;;25.82;40.93;100951.16;5692839;24;20102;-72
2022/07/25 14:52:04;;;;;;;;;;;;;;;;;;;;;
2022/07/25 14:54:43;;;;;;;6.85;2.22;;;;;;;25.97;42.42;100951.63;5799154;24;20165;-72
2022/07/25 15:30:15;;;;;;;;;;;;;;;;;;;;;
2022/07/25 15:33:42;;;;;;;7.13;1.73;;;;;;;25.92;40.71;100952.69;5948601;24;20088;-75
2022/07/25 15:36:34;;;;;;;6.22;1.42;;;;;;;25.87;40.16;100958.63;5983015;24;20469;-76
2022/07/25 15:39:27;;;;;;;10.73;2.42;;;;;;;25.80;39.45;100952.69;5971345;23;20599;-74
2022/07/25 15:42:39;;;;;;;9.57;1.50;;;;;;;25.88;39.57;100963.13;6053183;23;20440;-75
2022/07/25 15:45:22;;;;;;;8.52;2.13;;;;;;;25.89;39.63;100964.78;6215212;23;20032;-76
2022/07/25 15:55:51;;;;;;;6.18;1.23;;;;;;;25.70;39.60;100971.00;6209401;23;20459;-81
2022/07/25 16:05:52;;;;;;;7.93;1.63;;;;;;;25.53;39.66;100977.72;6201169;23;20094;-82
2022/07/25 16:08:54;;;;;;;6.80;1.80;;;;;;;25.54;40.12;100973.69;6165053;23;20063;-80
2022/07/25 16:12:32;;;;;;;7.32;1.45;;;;;;;25.62;40.64;100991.81;6176775;23;20009;-75
2022/07/25 16:15:57;;;;;;;;;;;;;;;;;;;;;
2022/07/25 16:18:56;;;;;;;;;;;;;;;;;;;;;
2022/07/25 16:33:23;;;;;;;;;;;;;;;;;;;;;
2022/07/25 16:40:16;;;;;;;;;;;;;;;;;;;;;
2022/07/25 16:53:23;;;;;;;;;;;;;;;;;;;;;
2022/07/25 16:56:39;;;;;;;7.20;1.02;;;;;;;25.40;40.34;100996.75;6144431;23;19999;-73
2022/07/25 17:21:23;;;;;;;3.50;1.30;;;;;;;25.27;39.08;101028.28;6148420;23;20024;-75
2022/07/25 17:31:45;;;;;;;6.45;1.35;;;;;;;25.11;39.54;101023.28;6058725;23;20096;-72
2022/07/25 17:34:58;;;;;;;;;;;;;;;;;;;;;
2022/07/25 17:37:49;;;;;;;7.38;1.17;;;;;;;24.98;38.99;101024.34;6101803;23;20093;-75
2022/07/25 17:41:16;;;;;;;;;;;;;;;;;;;;;
2022/07/25 17:48:20;;;;;;;2.83;0.98;;;;;;;24.96;39.92;101032.41;6088030;23;20098;-75
2022/07/25 17:51:29;;;;;;;;;;;;;;;;;;;;;
2022/07/25 17:54:33;;;;;;;;;;;;;;;;;;;;;
2022/07/25 17:57:58;;;;;;;2.47;0.82;;;;;;;24.94;39.73;101038.41;6048206;23;20014;-72
2022/07/25 18:05:16;;;;;;;4.80;1.10;;;;;;;24.90;40.31;101036.59;6072163;23;20459;-73
2022/07/25 18:12:03;;;;;;;;;;;;;;;;;;;;;
2022/07/25 18:37:01;;;;;;;;;;;;;;;;;;;;;
2022/07/25 18:54:11;;;;;;;;;;;;;;;;;;;;;
2022/07/25 19:04:22;;;;;;;1.60;0.60;;;;;;;24.33;42.80;101093.88;6002765;23;20373;-72
2022/07/25 19:07:36;;;;;;;2.53;0.65;;;;;;;24.19;42.62;101079.91;5914801;24;20136;-71
2022/07/25 19:25:09;;;;;;;;;;;;;;;;;;;;;
2022/07/25 19:28:30;;;;;;;;;;;;;;;;;;;;;
2022/07/25 19:32:14;;;;;;;;;;;;;;;;;;;;;
2022/07/25 19:39:51;;;;;;;;;;;;;;;;;;;;;
2022/07/25 19:43:00;;;;;;;3.35;1.00;;;;;;;23.95;44.14;101126.69;5957533;23;20019;-73
2022/07/25 19:50:12;;;;;;;5.63;0.90;;;;;;;23.97;44.37;101127.19;5922911;24;20032;-74
2022/07/25 19:54:08;;;;;;;;;;;;;;;;;;;;;
2022/07/25 20:07:30;;;;;;;;;;;;;;;;;;;;;
2022/07/25 20:10:53;;;;;;;4.93;1.00;;;;;;;23.79;45.83;101156.72;6103469;23;20113;-73
2022/07/25 20:38:27;;;;;;;;;;;;;;;;;;;;;
2022/07/25 20:41:31;;;;;;;3.67;1.10;;;;;;;23.53;46.69;101151.03;6073602;23;20020;-73
2022/07/25 20:45:02;;;;;;;5.47;1.42;;;;;;;23.49;46.75;101150.03;6160802;23;20039;-73
2022/07/25 21:02:20;;;;;;;2.17;1.02;;;;;;;23.56;46.78;101156.03;6034294;23;20435;-75
2022/07/25 21:37:03;;;;;;;3.97;1.30;;;;;;;23.32;47.89;101172.69;6007928;23;20054;-76
2022/07/25 21:40:25;;;;;;;4.57;1.77;;;;;;;23.23;48.17;101181.19;6007337;23;20583;-76
2022/07/25 22:07:24;;;;;;;2.85;1.55;;;;;;;23.07;48.32;101192.16;5979208;23;20026;-74
2022/07/25 22:16:55;;;;;;;5.15;1.58;;;;;;;22.88;48.90;101197.22;6122851;23;20416;-76
2022/07/25 22:23:33;;;;;;;6.00;1.45;;;;;;;22.92;49.02;101212.44;6150900;23;20027;-74
2022/07/25 22:29:47;;;;;;;3.97;1.60;;;;;;;22.85;49.18;101212.03;6200145;23;20454;-68
2022/07/25 22:32:13;;;;;;;6.00;1.65;;;;;;;22.72;49.33;101213.81;6243407;23;20000;-69
2022/07/25 22:34:38;;;;;;;5.63;1.85;;;;;;;22.59;49.77;101215.56;6241578;23;20252;-67
2022/07/25 22:37:03;;;;;;;8.13;1.90;;;;;;;22.52;49.78;101218.06;6240293;23;20004;-67
2022/07/25 22:39:29;;;;;;;5.53;1.40;;;;;;;22.46;49.97;101222.19;6241997;23;20037;-67
2022/07/25 22:41:54;;;;;;;8.30;1.70;;;;;;;22.42;50.12;101215.50;6243723;23;20000;-67
2022/07/25 22:44:19;;;;;;;5.18;1.77;;;;;;;22.28;50.53;101222.09;6246512;23;20035;-67
2022/07/25 22:46:45;;;;;;;5.97;1.60;;;;;;;22.24;50.72;101211.72;6246736;23;20008;-67
2022/07/25 22:49:10;;;;;;;7.15;1.70;;;;;;;22.24;50.83;101214.53;6247068;23;20000;-67
2022/07/25 22:51:35;;;;;;;6.85;1.75;;;;;;;22.18;50.69;101218.69;6246230;23;20008;-67
2022/07/25 22:54:03;;;;;;;4.32;1.63;;;;;;;22.14;51.29;101220.50;6247099;23;20364;-67
2022/07/25 22:56:28;;;;;;;5.18;1.45;;;;;;;22.11;50.84;101216.28;6246641;23;20000;-67
2022/07/25 22:58:54;;;;;;;7.00;1.70;;;;;;;21.98;51.27;101212.38;6246053;23;20066;-67
2022/07/25 23:01:20;;;;;;;6.97;1.75;;;;;;;21.96;51.71;101219.47;6245967;23;20043;-67
2022/07/25 23:03:48;;;;;;;4.97;1.60;;;;;;;21.96;51.52;101219.47;6246222;23;20015;-67
2022/07/25 23:06:14;;;;;;;4.53;1.42;;;;;;;21.92;51.35;101215.63;6245712;23;20008;-67
2022/07/25 23:08:39;;;;;;;3.90;1.70;;;;;;;21.90;51.44;101215.13;6247226;23;20024;-68
2022/07/25 23:11:04;;;;;;;8.82;1.90;;;;;;;21.92;51.64;101224.09;6246543;23;20302;-67
2022/07/25 23:13:31;;;;;;;6.60;2.13;;;;;;;21.85;51.96;101226.53;6245538;23;20035;-67
2022/07/25 23:15:56;;;;;;;5.15;1.70;;;;;;;21.89;51.65;101219.09;6246032;23;20000;-67
2022/07/25 23:18:21;;;;;;;3.75;1.52;;;;;;;21.77;51.91;101229.00;6245541;23;20035;-66
2022/07/25 23:20:47;;;;;;;5.90;1.83;;;;;;;21.78;51.90;101222.19;6245962;23;20012;-67
2022/07/25 23:23:12;;;;;;;6.13;1.60;;;;;;;21.76;52.04;101221.66;6246878;23;20044;-67
2022/07/25 23:25:37;;;;;;;6.50;1.63;;;;;;;21.62;52.41;101228.53;6246539;23;20004;-67
2022/07/25 23:28:03;;;;;;;9.23;1.80;;;;;;;21.68;52.13;101232.88;6246398;23;20431;-67
2022/07/25 23:30:28;;;;;;;7.53;1.80;;;;;;;21.69;52.20;101235.41;6245878;23;20157;-67
2022/07/25 23:32:53;;;;;;;5.57;2.00;;;;;;;21.63;52.33;101233.84;6245306;23;20032;-67
2022/07/25 23:35:19;;;;;;;6.50;1.92;;;;;;;21.60;52.32;101234.47;6246779;23;20008;-67
2022/07/25 23:37:44;;;;;;;11.30;2.28;;;;;;;21.55;52.51;101234.63;6247148;23;20058;-67
2022/07/25 23:40:10;;;;;;;5.05;1.50;;;;;;;21.53;52.67;101228.44;6245983;23;20000;-67
2022/07/25 23:42:35;;;;;;;5.78;1.55;;;;;;;21.53;52.64;101229.25;6245686;23;20004;-67
2022/07/25 23:45:01;;;;;;;6.15;1.60;;;;;;;21.56;52.62;101233.44;6245902;23;20011;-67
2022/07/25 23:47:26;;;;;;;5.72;1.83;;;;;;;21.41;52.92;101233.78;6245809;23;20031;-67
2022/07/25 23:49:52;;;;;;;6.53;1.70;;;;;;;21.48;53.18;101243.50;6246775;23;20047;-67
2022/07/25 23:52:17;;;;;;;4.32;1.55;;;;;;;21.40;53.02;101246.25;6247079;23;20400;-67
2022/07/25 23:54:42;;;;;;;8.68;2.08;;;;;;;21.44;52.84;101247.28;6245203;23;20016;-67
2022/07/25 23:57:08;;;;;;;4.18;1.60;;;;;;;21.46;52.84;101248.66;6246626;23;20031;-67
2022/07/25 23:59:34;;;;;;;7.45;1.88;;;;;;;21.39;53.17;101251.06;6246798;23;20008;-67
